DAUG/GHA METAR and TAF weather

Enter ICAO airport designator
Station Type Date Time Source
DAUG METAR 2019/12/10 03:00 UTC NOAA

DAUG 100300Z 00000KT CAVOK 12/05 Q1024


Station Type Date Time Source
DAUG Decoded METAR 2019/12/10 03:00 UTC NOAA

Ghardaia, Algeria (DAUG) 32-23N 003-49E 450M
Dec 09, 2019 - 10:00 PM EST / 2019.12.10 0300 UTC
Wind: Calm:0
Visibility: greater than 7 mile(s):0
Temperature: 53 F (12 C)
Dew Point: 41 F (5 C)
Relative Humidity: 62%
Pressure (altimeter): 30.24 in. Hg (1024 hPa)
ob: DAUG 100300Z 00000KT CAVOK 12/05 Q1024
cycle: 3

Station Type Date Time Source
DAUG TAF 2019/12/09 18:33 UTC NOAA

TAF DAUG 091700Z 0918/1018 34009KT 8000 NSC

Example: see airport list